createdAt,value
2018-09-13T00:00:45.056Z,0
2018-09-13T00:01:55.261Z,0
2018-09-13T00:03:05.232Z,0
2018-09-13T00:04:15.199Z,0
2018-09-13T00:05:25.163Z,0
2018-09-13T00:06:34.865Z,0
2018-09-13T00:07:44.688Z,0
2018-09-13T00:08:54.747Z,0
2018-09-13T00:10:04.709Z,0
2018-09-13T00:11:14.698Z,0
2018-09-13T00:12:24.659Z,0
2018-09-13T00:13:34.356Z,0
2018-09-13T00:14:44.056Z,0
2018-09-13T00:15:53.492Z,0
2018-09-13T00:17:03.193Z,0
2018-09-13T00:18:13.155Z,0
2018-09-13T00:19:22.606Z,0
2018-09-13T00:20:32.559Z,0
2018-09-13T00:21:42.519Z,0
2018-09-13T00:22:52.512Z,0
2018-09-13T00:24:02.467Z,0
2018-09-13T00:25:12.425Z,0
2018-09-13T00:26:21.865Z,0
2018-09-13T00:27:31.567Z,0
2018-09-13T00:28:41.004Z,0
2018-09-13T00:29:50.964Z,0
2018-09-13T00:31:00.926Z,0
2018-09-13T00:32:10.900Z,0
2018-09-13T00:33:21.002Z,0
2018-09-13T00:34:30.968Z,0
2018-09-13T00:35:40.664Z,0
2018-09-13T00:36:50.619Z,0
2018-09-13T00:38:00.620Z,0
2018-09-13T00:39:10.305Z,0
2018-09-13T00:40:20.260Z,0
2018-09-13T00:41:29.699Z,0
2018-09-13T00:42:39.663Z,0
2018-09-13T00:43:49.365Z,0
2018-09-13T00:44:59.326Z,0
2018-09-13T00:46:09.284Z,0
2018-09-13T00:47:18.992Z,0
2018-09-13T00:48:28.947Z,0
2018-09-13T00:49:38.647Z,0
2018-09-13T00:50:48.608Z,0
2018-09-13T00:51:58.314Z,0
2018-09-13T00:53:08.276Z,0
2018-09-13T00:54:18.224Z,0
2018-09-13T00:55:28.197Z,0
2018-09-13T00:56:38.156Z,0
2018-09-13T00:57:48.156Z,0
2018-09-13T00:58:57.972Z,0
2018-09-13T01:00:07.941Z,0
2018-09-13T01:01:17.894Z,0
2018-09-13T01:02:27.700Z,0
2018-09-13T01:03:37.402Z,0
2018-09-13T01:04:47.112Z,0
2018-09-13T01:05:57.089Z,0
2018-09-13T01:07:07.048Z,0
2018-09-13T01:08:17.004Z,0
2018-09-13T01:09:26.713Z,0
2018-09-13T01:10:36.653Z,0
2018-09-13T01:11:46.626Z,0
2018-09-13T01:12:56.581Z,0
2018-09-13T01:14:06.552Z,0
2018-09-13T01:15:16.516Z,0
2018-09-13T01:16:26.473Z,0
2018-09-13T01:17:36.423Z,0
2018-09-13T01:18:46.387Z,0
2018-09-13T01:19:56.350Z,0
2018-09-13T01:21:06.300Z,0
2018-09-13T01:22:15.728Z,0
2018-09-13T01:23:25.685Z,0
2018-09-13T01:24:34.874Z,0
2018-09-13T01:25:44.316Z,0
2018-09-13T01:26:54.006Z,0
2018-09-13T01:28:03.974Z,0
2018-09-13T01:29:13.675Z,0
2018-09-13T01:30:23.631Z,0
2018-09-13T01:31:33.595Z,0
2018-09-13T01:32:43.290Z,0
2018-09-13T01:33:52.742Z,0
2018-09-13T01:35:02.444Z,0
2018-09-13T01:36:12.148Z,0
2018-09-13T01:37:22.087Z,0
2018-09-13T01:38:31.799Z,0
2018-09-13T01:39:41.745Z,0
2018-09-13T01:40:51.742Z,0
2018-09-13T01:42:01.443Z,0
2018-09-13T01:43:10.890Z,0
2018-09-13T01:44:20.598Z,0
2018-09-13T01:45:30.552Z,0
2018-09-13T01:46:40.511Z,0
2018-09-13T01:47:50.218Z,0
2018-09-13T01:48:59.956Z,0
2018-09-13T01:50:09.649Z,0
2018-09-13T01:51:19.360Z,0
2018-09-13T01:52:29.307Z,0
2018-09-13T01:53:39.271Z,0
2018-09-13T01:54:49.214Z,0
2018-09-13T01:55:59.171Z,0
2018-09-13T01:57:08.869Z,0
2018-09-13T01:58:18.312Z,0
2018-09-13T01:59:28.255Z,0
2018-09-13T02:00:38.205Z,0
2018-09-13T02:01:47.881Z,0
2018-09-13T02:02:57.830Z,0
2018-09-13T02:04:07.540Z,0
2018-09-13T02:05:17.476Z,0
2018-09-13T02:06:27.435Z,0
2018-09-13T02:07:37.397Z,0
2018-09-13T02:08:47.352Z,0
2018-09-13T02:09:57.315Z,0
2018-09-13T02:11:07.272Z,0
2018-09-13T02:12:17.226Z,0
2018-09-13T02:13:27.166Z,0
2018-09-13T02:14:37.138Z,0
2018-09-13T02:15:47.089Z,0
2018-09-13T02:16:57.032Z,0
2018-09-13T02:18:06.728Z,0
2018-09-13T02:19:16.680Z,0
2018-09-13T02:20:26.371Z,0
2018-09-13T02:21:36.312Z,0
2018-09-13T02:22:46.019Z,0
2018-09-13T02:23:55.968Z,0
2018-09-13T02:25:05.667Z,0
2018-09-13T02:26:15.620Z,0
2018-09-13T02:27:25.572Z,0
2018-09-13T02:28:35.265Z,0
2018-09-13T02:29:45.213Z,0
2018-09-13T02:30:54.906Z,0
2018-09-13T02:32:04.611Z,0
2018-09-13T02:33:14.060Z,0
2018-09-13T02:34:24.018Z,0
2018-09-13T02:35:33.974Z,0
2018-09-13T02:36:43.933Z,0
2018-09-13T02:37:53.900Z,0
2018-09-13T02:39:03.845Z,0
2018-09-13T02:40:13.793Z,0
2018-09-13T02:41:23.769Z,0
2018-09-13T02:42:33.718Z,0
2018-09-13T02:43:43.415Z,0
2018-09-13T02:44:53.109Z,0
2018-09-13T02:46:03.050Z,0
2018-09-13T02:47:13.000Z,0
2018-09-13T02:48:22.720Z,0
2018-09-13T02:49:32.683Z,0
2018-09-13T02:50:42.641Z,0
2018-09-13T02:51:52.339Z,0
2018-09-13T02:53:02.310Z,0
2018-09-13T02:54:12.243Z,0
2018-09-13T02:55:21.940Z,0
2018-09-13T02:56:31.895Z,0
2018-09-13T02:57:41.577Z,0
2018-09-13T02:58:51.541Z,0
2018-09-13T03:00:01.487Z,0
2018-09-13T03:01:11.196Z,0
2018-09-13T03:02:21.169Z,0
2018-09-13T03:03:31.117Z,0
2018-09-13T03:04:41.072Z,0
2018-09-13T03:05:51.032Z,0
2018-09-13T03:07:00.718Z,0
2018-09-13T03:08:10.729Z,0
2018-09-13T03:09:20.493Z,0
2018-09-13T03:10:30.223Z,0
2018-09-13T03:11:39.909Z,0
2018-09-13T03:12:49.863Z,0
2018-09-13T03:13:59.834Z,0
2018-09-13T03:15:09.801Z,0
2018-09-13T03:16:19.768Z,0
2018-09-13T03:17:29.720Z,0
2018-09-13T03:18:39.660Z,0
2018-09-13T03:19:49.628Z,0
2018-09-13T03:20:59.579Z,0
2018-09-13T03:22:09.293Z,0
2018-09-13T03:23:18.729Z,0
2018-09-13T03:24:28.670Z,0
2018-09-13T03:25:38.611Z,0
2018-09-13T03:26:48.570Z,0
2018-09-13T03:27:58.001Z,0
2018-09-13T03:29:07.955Z,0
2018-09-13T03:30:17.904Z,0
2018-09-13T03:31:27.625Z,0
2018-09-13T03:32:37.693Z,0
2018-09-13T03:33:47.651Z,0
2018-09-13T03:34:57.599Z,0
2018-09-13T03:36:07.288Z,0
2018-09-13T03:37:17.220Z,0
2018-09-13T03:38:27.167Z,0
2018-09-13T03:39:36.600Z,0
2018-09-13T03:40:46.552Z,0
2018-09-13T03:41:56.666Z,0
2018-09-13T03:43:06.691Z,0
2018-09-13T03:44:16.629Z,0
2018-09-13T03:45:26.590Z,0
2018-09-13T03:46:36.028Z,0
2018-09-13T03:47:45.715Z,0
2018-09-13T03:48:55.669Z,0
2018-09-13T03:50:05.116Z,0
2018-09-13T03:51:15.068Z,0
2018-09-13T03:52:25.025Z,0
2018-09-13T03:53:34.719Z,0
2018-09-13T03:54:44.416Z,0
2018-09-13T03:55:54.392Z,0
2018-09-13T03:57:04.102Z,0
2018-09-13T03:58:14.048Z,0
2018-09-13T03:59:23.490Z,0
2018-09-13T04:00:33.427Z,0
2018-09-13T04:01:42.861Z,0
2018-09-13T04:02:52.808Z,0
2018-09-13T04:04:02.779Z,0
2018-09-13T04:05:12.472Z,0
2018-09-13T04:06:22.430Z,0
2018-09-13T04:07:32.115Z,0
2018-09-13T04:08:41.822Z,0
2018-09-13T04:09:51.776Z,0
2018-09-13T04:11:01.499Z,0
2018-09-13T04:12:11.187Z,0
2018-09-13T04:13:21.138Z,0
2018-09-13T04:14:31.092Z,0
2018-09-13T04:15:40.786Z,0
2018-09-13T04:16:50.481Z,0
2018-09-13T04:18:00.431Z,0
2018-09-13T04:19:10.115Z,0
2018-09-13T04:20:19.808Z,0
2018-09-13T04:21:29.766Z,0
2018-09-13T04:22:39.682Z,0
2018-09-13T04:23:49.629Z,0
2018-09-13T04:24:59.591Z,0
2018-09-13T04:26:09.544Z,0
2018-09-13T04:27:19.493Z,0
2018-09-13T04:28:29.433Z,0
2018-09-13T04:29:39.120Z,0
2018-09-13T04:30:48.822Z,0
2018-09-13T04:31:58.509Z,0
2018-09-13T04:33:08.259Z,0
2018-09-13T04:34:18.225Z,0
2018-09-13T04:35:28.279Z,0
2018-09-13T04:36:37.997Z,0
2018-09-13T04:37:47.944Z,0
2018-09-13T04:38:57.910Z,0
2018-09-13T04:40:07.853Z,5
2018-09-13T04:41:17.789Z,5
2018-09-13T04:42:27.485Z,5
2018-09-13T04:43:37.439Z,5
2018-09-13T04:44:47.137Z,5
2018-09-13T04:45:57.097Z,5
2018-09-13T04:47:07.064Z,5
2018-09-13T04:48:17.006Z,5
2018-09-13T04:49:27.065Z,10
2018-09-13T04:50:36.759Z,10
2018-09-13T04:51:46.412Z,10
2018-09-13T04:52:56.100Z,10
2018-09-13T04:54:06.055Z,10
2018-09-13T04:55:15.990Z,15
2018-09-13T04:56:25.941Z,15
2018-09-13T04:57:35.886Z,15
2018-09-13T04:58:45.330Z,15
2018-09-13T04:59:55.284Z,20
2018-09-13T05:01:05.237Z,20
2018-09-13T05:02:15.216Z,25
2018-09-13T05:03:24.918Z,25
2018-09-13T05:04:34.599Z,25
2018-09-13T05:05:44.567Z,25
2018-09-13T05:06:54.760Z,25
2018-09-13T05:08:04.711Z,20
2018-09-13T05:09:14.415Z,20
2018-09-13T05:10:24.113Z,20
2018-09-13T05:11:33.791Z,20
2018-09-13T05:12:43.869Z,20
2018-09-13T05:13:53.582Z,20
2018-09-13T05:15:03.514Z,25
2018-09-13T05:16:13.197Z,25
2018-09-13T05:17:22.894Z,25
2018-09-13T05:18:32.574Z,25
2018-09-13T05:19:42.534Z,25
2018-09-13T05:20:52.495Z,30
2018-09-13T05:22:02.447Z,30
2018-09-13T05:23:12.395Z,30
2018-09-13T05:24:22.526Z,30
2018-09-13T05:25:32.276Z,30
2018-09-13T05:26:41.960Z,30
2018-09-13T05:27:51.905Z,30
2018-09-13T05:29:01.853Z,35
2018-09-13T05:30:11.820Z,35
2018-09-13T05:31:21.772Z,35
2018-09-13T05:32:31.464Z,40
2018-09-13T05:33:41.433Z,40
2018-09-13T05:34:51.389Z,50
2018-09-13T05:36:01.098Z,55
2018-09-13T05:37:10.807Z,60
2018-09-13T05:38:20.773Z,60
2018-09-13T05:39:30.712Z,65
2018-09-13T05:40:40.706Z,65
2018-09-13T05:41:50.416Z,65
2018-09-13T05:43:00.120Z,70
2018-09-13T05:44:10.069Z,70
2018-09-13T05:45:20.033Z,70
2018-09-13T05:46:30.086Z,70
2018-09-13T05:47:39.816Z,70
2018-09-13T05:48:49.503Z,70
2018-09-13T05:49:59.561Z,70
2018-09-13T05:51:09.814Z,75
2018-09-13T05:52:19.584Z,80
2018-09-13T05:53:29.597Z,80
2018-09-13T05:54:39.555Z,85
2018-09-13T05:55:49.253Z,85
2018-09-13T05:56:59.235Z,80
2018-09-13T05:58:09.261Z,85
2018-09-13T05:59:18.997Z,85
2018-09-13T06:00:28.942Z,85
2018-09-13T06:01:39.074Z,85
2018-09-13T06:02:49.242Z,90
2018-09-13T06:03:59.005Z,100
2018-09-13T06:05:08.980Z,115
2018-09-13T06:06:18.942Z,135
2018-09-13T06:07:28.386Z,145
2018-09-13T06:08:38.337Z,155
2018-09-13T06:09:48.031Z,165
2018-09-13T06:10:57.983Z,175
2018-09-13T06:12:07.419Z,180
2018-09-13T06:13:17.372Z,180
2018-09-13T06:14:27.322Z,180
2018-09-13T06:15:37.280Z,175
2018-09-13T06:16:46.982Z,170
2018-09-13T06:17:56.998Z,165
2018-09-13T06:19:06.957Z,160
2018-09-13T06:20:16.903Z,150
2018-09-13T06:21:26.340Z,155
2018-09-13T06:22:36.328Z,145
2018-09-13T06:23:45.764Z,145
2018-09-13T06:24:55.733Z,150
2018-09-13T06:26:05.430Z,150
2018-09-13T06:27:14.866Z,150
2018-09-13T06:28:24.563Z,150
2018-09-13T06:29:34.830Z,145
2018-09-13T06:30:44.333Z,145
2018-09-13T06:31:54.290Z,145
2018-09-13T06:33:04.249Z,145
2018-09-13T06:34:13.995Z,150
2018-09-13T06:35:23.940Z,150
2018-09-13T06:36:34.335Z,165
2018-09-13T06:37:44.033Z,170
2018-09-13T06:38:53.999Z,185
2018-09-13T06:40:03.725Z,200
2018-09-13T06:41:13.679Z,215
2018-09-13T06:42:23.614Z,225
2018-09-13T06:43:33.607Z,240
2018-09-13T06:44:43.047Z,260
2018-09-13T06:45:53.056Z,285
2018-09-13T06:47:02.749Z,300
2018-09-13T06:48:12.174Z,320
2018-09-13T06:49:21.622Z,335
2018-09-13T06:50:31.574Z,340
2018-09-13T06:51:41.523Z,340
2018-09-13T06:52:51.509Z,325
2018-09-13T06:54:01.274Z,305
2018-09-13T06:55:11.233Z,265
2018-09-13T06:56:21.198Z,220
2018-09-13T06:57:31.164Z,195
2018-09-13T06:58:40.863Z,185
2018-09-13T06:59:50.562Z,185
2018-09-13T07:00:59.999Z,190
2018-09-13T07:02:09.983Z,190
2018-09-13T07:03:19.938Z,195
2018-09-13T07:04:29.968Z,215
2018-09-13T07:05:39.906Z,230
2018-09-13T07:06:49.777Z,250
2018-09-13T07:07:59.722Z,260
2018-09-13T07:09:09.932Z,255
2018-09-13T07:10:19.711Z,260
2018-09-13T07:11:29.740Z,265
2018-09-13T07:12:39.746Z,265
2018-09-13T07:13:49.720Z,255
2018-09-13T07:14:59.708Z,240
2018-09-13T07:16:09.673Z,230
2018-09-13T07:17:19.386Z,225
2018-09-13T07:18:29.088Z,225
2018-09-13T07:19:39.055Z,225
2018-09-13T07:20:48.757Z,225
2018-09-13T07:21:58.445Z,225
2018-09-13T07:23:08.159Z,225
2018-09-13T07:24:17.887Z,225
2018-09-13T07:25:27.849Z,220
2018-09-13T07:26:37.323Z,220
2018-09-13T07:27:47.032Z,225
2018-09-13T07:28:57.023Z,235
2018-09-13T07:30:06.734Z,260
2018-09-13T07:31:16.755Z,280
2018-09-13T07:32:26.460Z,290
2018-09-13T07:33:36.434Z,295
2018-09-13T07:34:46.393Z,280
2018-09-13T07:35:56.352Z,265
2018-09-13T07:37:06.060Z,250
2018-09-13T07:38:15.776Z,240
2018-09-13T07:39:25.748Z,240
2018-09-13T07:40:35.704Z,245
2018-09-13T07:41:45.673Z,260
2018-09-13T07:42:56.153Z,280
2018-09-13T07:44:05.597Z,295
2018-09-13T07:45:15.581Z,295
2018-09-13T07:46:25.297Z,280
2018-09-13T07:47:35.257Z,255
2018-09-13T07:48:45.233Z,255
2018-09-13T07:49:56.150Z,255
2018-09-13T07:51:05.992Z,245
2018-09-13T07:52:15.719Z,230
2018-09-13T07:53:25.694Z,220
2018-09-13T07:54:35.416Z,220
2018-09-13T07:55:45.655Z,235
2018-09-13T07:56:55.697Z,265
2018-09-13T07:58:05.867Z,280
2018-09-13T07:59:15.866Z,290
2018-09-13T08:00:25.846Z,310
2018-09-13T08:01:35.877Z,335
2018-09-13T08:02:45.943Z,365
2018-09-13T08:03:55.933Z,380
2018-09-13T08:05:06.319Z,375
2018-09-13T08:06:16.369Z,360
2018-09-13T08:07:26.076Z,335
2018-09-13T08:08:36.054Z,320
2018-09-13T08:09:45.784Z,325
2018-09-13T08:10:55.491Z,325
2018-09-13T08:12:06.521Z,325
2018-09-13T08:13:16.383Z,320
2018-09-13T08:14:26.351Z,310
2018-09-13T08:15:36.128Z,305
2018-09-13T08:16:45.857Z,295
2018-09-13T08:17:55.849Z,285
2018-09-13T08:19:05.811Z,280
2018-09-13T08:20:15.800Z,270
2018-09-13T08:21:25.657Z,260
2018-09-13T08:22:35.716Z,265
2018-09-13T08:23:45.697Z,280
2018-09-13T08:24:55.411Z,300
2018-09-13T08:26:05.115Z,320
2018-09-13T08:27:15.131Z,340
2018-09-13T08:28:24.536Z,360
2018-09-13T08:29:34.497Z,375
2018-09-13T08:30:44.459Z,395
2018-09-13T08:31:54.421Z,415
2018-09-13T08:33:04.408Z,420
2018-09-13T08:34:14.566Z,410
2018-09-13T08:35:24.023Z,400
2018-09-13T08:36:34.015Z,405
2018-09-13T08:38:28.414Z,435
2018-09-13T08:39:38.433Z,445
2018-09-13T08:40:48.425Z,445
2018-09-13T08:41:58.609Z,445
2018-09-13T08:43:09.052Z,440
2018-09-13T08:44:18.707Z,430
2018-09-13T08:45:28.695Z,420
2018-09-13T08:46:38.723Z,430
2018-09-13T08:47:49.075Z,445
2018-09-13T08:48:58.806Z,460
2018-09-13T08:50:08.517Z,470
2018-09-13T08:51:18.465Z,470
2018-09-13T08:52:28.428Z,480
2018-09-13T08:53:38.138Z,480
2018-09-13T08:54:48.120Z,465
2018-09-13T08:55:58.119Z,450
2018-09-13T08:57:08.149Z,435
2018-09-13T08:58:18.109Z,425
2018-09-13T08:59:27.863Z,415
2018-09-13T09:00:37.962Z,415
2018-09-13T09:01:47.729Z,405
2018-09-13T09:02:57.745Z,385
2018-09-13T09:04:07.448Z,360
2018-09-13T09:05:17.165Z,350
2018-09-13T09:06:27.414Z,350
2018-09-13T09:07:37.441Z,355
2018-09-13T09:08:47.122Z,355
2018-09-13T09:09:57.099Z,360
2018-09-13T09:11:06.793Z,370
2018-09-13T09:12:16.811Z,370
2018-09-13T09:13:26.522Z,370
2018-09-13T09:14:36.470Z,365
2018-09-13T09:15:46.427Z,350
2018-09-13T09:16:56.128Z,335
2018-09-13T09:18:06.096Z,300
2018-09-13T09:19:15.791Z,265
2018-09-13T09:20:25.748Z,240
2018-09-13T09:21:35.715Z,250
2018-09-13T09:22:45.661Z,285
2018-09-13T09:23:55.636Z,300
2018-09-13T09:25:05.595Z,300
2018-09-13T09:26:15.056Z,300
2018-09-13T09:27:25.003Z,275
2018-09-13T09:28:34.940Z,255
2018-09-13T09:29:44.645Z,245
2018-09-13T09:30:54.597Z,270
2018-09-13T09:32:04.565Z,315
2018-09-13T09:33:14.570Z,355
2018-09-13T09:34:24.543Z,375
2018-09-13T09:35:34.535Z,390
2018-09-13T09:36:44.238Z,390
2018-09-13T09:37:53.686Z,390
2018-09-13T09:39:03.683Z,375
2018-09-13T09:40:13.384Z,345
2018-09-13T09:41:23.335Z,335
2018-09-13T09:42:33.310Z,355
2018-09-13T09:43:43.283Z,395
2018-09-13T09:44:53.339Z,390
2018-09-13T09:46:03.309Z,390
2018-09-13T09:47:13.281Z,370
2018-09-13T09:48:23.236Z,310
2018-09-13T09:49:32.937Z,310
2018-09-13T09:50:42.820Z,350
2018-09-13T09:51:52.900Z,385
2018-09-13T09:53:02.959Z,350
2018-09-13T09:54:12.952Z,340
2018-09-13T09:55:22.649Z,360
2018-09-13T09:56:32.634Z,375
2018-09-13T09:57:42.368Z,375
2018-09-13T09:58:52.079Z,355
2018-09-13T10:00:02.033Z,340
2018-09-13T10:01:12.022Z,310
2018-09-13T10:02:22.014Z,305
2018-09-13T10:03:31.980Z,310
2018-09-13T10:04:42.341Z,330
2018-09-13T10:05:52.099Z,345
2018-09-13T10:07:02.074Z,350
2018-09-13T10:08:12.037Z,365
2018-09-13T10:09:21.811Z,395
2018-09-13T10:10:31.772Z,385
2018-09-13T10:11:41.726Z,370
2018-09-13T10:12:51.672Z,340
2018-09-13T10:14:01.635Z,310
2018-09-13T10:15:11.531Z,305
2018-09-13T10:16:21.692Z,305
2018-09-13T10:17:31.835Z,300
2018-09-13T10:18:41.804Z,295
2018-09-13T10:19:51.253Z,300
2018-09-13T10:21:00.949Z,330
2018-09-13T10:22:10.913Z,370
2018-09-13T10:23:20.890Z,390
2018-09-13T10:24:30.586Z,405
2018-09-13T10:25:40.565Z,435
2018-09-13T10:26:50.634Z,455
2018-09-13T10:28:00.067Z,460
2018-09-13T10:29:10.490Z,445
2018-09-13T10:30:20.466Z,420
2018-09-13T10:31:30.428Z,410
2018-09-13T10:32:40.396Z,410
2018-09-13T10:33:50.742Z,410
2018-09-13T10:35:00.703Z,400
2018-09-13T10:36:10.683Z,385
2018-09-13T10:37:20.661Z,380
2018-09-13T10:38:30.617Z,385
2018-09-13T10:39:40.651Z,350
2018-09-13T10:40:51.045Z,355
2018-09-13T10:42:01.017Z,360
2018-09-13T10:43:10.749Z,360
2018-09-13T10:44:20.448Z,365
2018-09-13T10:45:30.413Z,375
2018-09-13T10:46:40.112Z,385
2018-09-13T10:48:01.612Z,405
2018-09-13T10:49:11.583Z,450
2018-09-13T10:50:21.358Z,425
2018-09-13T10:51:31.321Z,395
2018-09-13T10:52:41.445Z,415
2018-09-13T10:53:51.538Z,410
2018-09-13T10:55:01.253Z,395
2018-09-13T10:56:11.235Z,420
2018-09-13T10:57:21.238Z,440
2018-09-13T10:58:30.945Z,455
2018-09-13T10:59:40.914Z,445
2018-09-13T11:00:50.886Z,420
2018-09-13T11:02:00.960Z,385
2018-09-13T11:03:10.920Z,370
2018-09-13T11:04:21.380Z,395
2018-09-13T11:05:31.458Z,385
2018-09-13T11:06:41.460Z,370
2018-09-13T11:07:51.423Z,395
2018-09-13T11:09:01.142Z,385
2018-09-13T11:10:11.122Z,340
2018-09-13T11:11:21.490Z,340
2018-09-13T11:12:31.571Z,355
2018-09-13T11:13:41.559Z,355
2018-09-13T11:14:51.031Z,335
2018-09-13T11:16:00.988Z,330
2018-09-13T11:17:10.945Z,310
2018-09-13T11:18:20.386Z,310
2018-09-13T11:19:30.100Z,340
2018-09-13T11:20:40.081Z,375
2018-09-13T11:21:50.487Z,410
2018-09-13T11:23:00.538Z,450
2018-09-13T11:24:10.515Z,480
2018-09-13T11:25:20.230Z,470
2018-09-13T11:26:30.208Z,445
2018-09-13T11:27:39.655Z,460
2018-09-13T11:28:49.622Z,500
2018-09-13T11:29:59.348Z,565
2018-09-13T11:31:09.311Z,590
2018-09-13T11:32:19.269Z,595
2018-09-13T11:33:29.268Z,570
2018-09-13T11:34:39.297Z,540
2018-09-13T11:35:49.270Z,515
2018-09-13T11:36:59.263Z,495
2018-09-13T11:38:08.962Z,490
2018-09-13T11:39:18.944Z,505
2018-09-13T11:40:29.386Z,520
2018-09-13T11:41:39.611Z,525
2018-09-13T11:42:49.331Z,530
2018-09-13T11:43:59.301Z,530
2018-09-13T11:45:09.007Z,505
2018-09-13T11:46:19.033Z,470
2018-09-13T11:47:28.721Z,435
2018-09-13T11:48:38.691Z,445
2018-09-13T11:49:48.400Z,485
2018-09-13T11:50:58.096Z,530
2018-09-13T11:52:08.068Z,510
2018-09-13T11:53:18.029Z,475
2018-09-13T11:54:27.732Z,440
2018-09-13T11:55:37.705Z,430
2018-09-13T11:56:47.676Z,430
2018-09-13T11:57:57.372Z,420
2018-09-13T11:59:07.331Z,410
2018-09-13T12:00:17.281Z,405
2018-09-13T12:01:27.466Z,410
2018-09-13T12:02:37.433Z,405
2018-09-13T12:03:46.879Z,380
2018-09-13T12:04:56.903Z,350
2018-09-13T12:06:06.600Z,330
2018-09-13T12:07:16.309Z,325
2018-09-13T12:08:26.264Z,325
2018-09-13T12:09:36.738Z,335
2018-09-13T12:10:46.810Z,365
2018-09-13T12:11:56.526Z,405
2018-09-13T12:13:06.224Z,445
2018-09-13T12:14:16.196Z,515
2018-09-13T12:15:25.640Z,590
2018-09-13T12:16:35.348Z,635
2018-09-13T12:17:45.098Z,665
2018-09-13T12:18:54.793Z,715
2018-09-13T12:20:04.496Z,710
2018-09-13T12:21:14.199Z,690
2018-09-13T12:22:24.150Z,665
2018-09-13T12:23:33.552Z,620
2018-09-13T12:24:43.521Z,580
2018-09-13T12:25:53.345Z,550
2018-09-13T12:27:03.301Z,525
2018-09-13T12:28:12.759Z,525
2018-09-13T12:29:22.460Z,570
2018-09-13T12:30:32.414Z,615
2018-09-13T12:31:42.394Z,670
2018-09-13T12:32:52.269Z,725
2018-09-13T12:34:02.209Z,740
2018-09-13T12:35:11.911Z,730
2018-09-13T12:36:21.866Z,650
2018-09-13T12:37:31.836Z,550
2018-09-13T12:38:41.843Z,505
2018-09-13T12:39:51.778Z,490
2018-09-13T12:41:01.766Z,480
2018-09-13T12:42:11.796Z,460
2018-09-13T12:43:21.766Z,445
2018-09-13T12:44:31.471Z,460
2018-09-13T12:45:41.185Z,490
2018-09-13T12:46:51.164Z,500
2018-09-13T12:48:01.132Z,495
2018-09-13T12:49:11.103Z,470
2018-09-13T12:50:21.114Z,420
2018-09-13T12:51:31.078Z,370
2018-09-13T12:52:40.332Z,335
2018-09-13T12:53:50.063Z,305
2018-09-13T12:55:00.215Z,290
2018-09-13T12:56:10.181Z,265
2018-09-13T12:57:20.147Z,245
2018-09-13T12:58:30.091Z,215
2018-09-13T12:59:39.782Z,205
2018-09-13T13:00:49.738Z,200
2018-09-13T13:01:59.682Z,195
2018-09-13T13:03:09.394Z,190
2018-09-13T13:04:19.105Z,190
2018-09-13T13:05:28.547Z,185
2018-09-13T13:06:38.378Z,180
2018-09-13T13:07:47.842Z,180
2018-09-13T13:08:58.240Z,185
2018-09-13T13:10:08.197Z,190
2018-09-13T13:11:18.200Z,195
2018-09-13T13:12:27.923Z,195
2018-09-13T13:13:37.627Z,210
2018-09-13T13:14:47.603Z,225
2018-09-13T13:15:57.562Z,255
2018-09-13T13:17:08.033Z,275
2018-09-13T13:18:17.984Z,290
2018-09-13T13:19:28.491Z,315
2018-09-13T13:20:38.252Z,325
2018-09-13T13:21:47.964Z,320
2018-09-13T13:22:57.944Z,305
2018-09-13T13:24:07.652Z,300
2018-09-13T13:25:17.607Z,280
2018-09-13T13:26:27.331Z,275
2018-09-13T13:27:37.811Z,270
2018-09-13T13:28:47.839Z,265
2018-09-13T13:29:57.789Z,260
2018-09-13T13:31:07.486Z,260
2018-09-13T13:32:17.177Z,260
2018-09-13T13:33:26.889Z,255
2018-09-13T13:34:36.868Z,245
2018-09-13T13:35:46.328Z,240
2018-09-13T13:36:56.303Z,245
2018-09-13T13:38:06.045Z,255
2018-09-13T13:39:16.065Z,270
2018-09-13T13:40:25.780Z,285
2018-09-13T13:41:35.777Z,300
2018-09-13T13:42:45.744Z,315
2018-09-13T13:43:55.267Z,325
2018-09-13T13:45:05.262Z,330
2018-09-13T13:46:14.969Z,340
2018-09-13T13:47:24.409Z,360
2018-09-13T13:48:34.374Z,370
2018-09-13T13:49:43.829Z,350
2018-09-13T13:50:53.808Z,315
2018-09-13T13:52:03.769Z,285
2018-09-13T13:53:13.725Z,260
2018-09-13T13:54:23.681Z,240
2018-09-13T13:55:33.387Z,225
2018-09-13T13:56:43.354Z,225
2018-09-13T13:57:53.317Z,225
2018-09-13T13:59:03.276Z,220
2018-09-13T14:00:13.279Z,215
2018-09-13T14:01:22.993Z,205
2018-09-13T14:02:32.982Z,210
2018-09-13T14:03:42.945Z,220
2018-09-13T14:04:52.442Z,235
2018-09-13T14:06:02.170Z,245
2018-09-13T14:07:11.868Z,240
2018-09-13T14:08:21.843Z,235
2018-09-13T14:09:31.810Z,240
2018-09-13T14:10:41.797Z,265
2018-09-13T14:11:51.758Z,290
2018-09-13T14:13:01.502Z,320
2018-09-13T14:14:11.493Z,330
2018-09-13T14:15:21.188Z,325
2018-09-13T14:16:31.145Z,310
2018-09-13T14:17:41.113Z,315
2018-09-13T14:18:51.058Z,340
2018-09-13T14:20:01.019Z,375
2018-09-13T14:21:10.764Z,410
2018-09-13T14:22:20.488Z,435
2018-09-13T14:23:30.183Z,430
2018-09-13T14:24:40.141Z,425
2018-09-13T14:25:49.850Z,425
2018-09-13T14:26:59.564Z,425
2018-09-13T14:28:09.021Z,430
2018-09-13T14:29:19.007Z,430
2018-09-13T14:30:28.968Z,420
2018-09-13T14:31:38.937Z,400
2018-09-13T14:32:48.646Z,380
2018-09-13T14:33:58.336Z,360
2018-09-13T14:35:08.312Z,330
2018-09-13T14:36:18.027Z,305
2018-09-13T14:37:27.993Z,280
2018-09-13T14:38:37.694Z,260
2018-09-13T14:39:47.413Z,250
2018-09-13T14:40:57.384Z,245
2018-09-13T14:42:06.577Z,240
2018-09-13T14:43:16.554Z,240
2018-09-13T14:44:26.266Z,245
2018-09-13T14:45:35.970Z,235
2018-09-13T14:46:45.708Z,220
2018-09-13T14:47:55.677Z,205
2018-09-13T14:49:05.591Z,190
2018-09-13T14:50:15.551Z,180
2018-09-13T14:51:25.552Z,170
2018-09-13T14:52:35.520Z,170
2018-09-13T14:53:45.485Z,175
2018-09-13T14:54:55.199Z,170
2018-09-13T14:56:05.260Z,170
2018-09-13T14:57:15.613Z,165
2018-09-13T14:58:25.359Z,160
2018-09-13T14:59:35.071Z,160
2018-09-13T15:00:45.068Z,165
2018-09-13T15:01:54.773Z,170
2018-09-13T15:03:04.734Z,180
2018-09-13T15:04:14.714Z,190
2018-09-13T15:05:24.722Z,200
2018-09-13T15:06:34.418Z,205
2018-09-13T15:07:44.126Z,210
2018-09-13T15:08:54.366Z,210
2018-09-13T15:10:04.322Z,210
2018-09-13T15:11:14.313Z,200
2018-09-13T15:12:24.042Z,200
2018-09-13T15:13:33.744Z,210
2018-09-13T15:14:43.774Z,205
2018-09-13T15:15:53.482Z,190
2018-09-13T15:17:02.949Z,180
2018-09-13T15:18:12.387Z,175
2018-09-13T15:19:22.350Z,170
2018-09-13T15:20:32.320Z,155
2018-09-13T15:21:42.292Z,145
2018-09-13T15:22:52.269Z,130
2018-09-13T15:24:02.236Z,120
2018-09-13T15:25:12.201Z,115
2018-09-13T15:26:21.909Z,110
2018-09-13T15:27:31.881Z,100
2018-09-13T15:28:41.859Z,90
2018-09-13T15:29:51.845Z,85
2018-09-13T15:31:01.142Z,80
2018-09-13T15:32:11.172Z,80
2018-09-13T15:33:20.877Z,85
2018-09-13T15:34:30.593Z,90
2018-09-13T15:35:40.832Z,95
2018-09-13T15:36:50.943Z,100
2018-09-13T15:38:00.659Z,110
2018-09-13T15:39:10.618Z,110
2018-09-13T15:40:20.316Z,115
2018-09-13T15:41:30.258Z,115
2018-09-13T15:42:40.218Z,125
2018-09-13T15:43:49.920Z,140
2018-09-13T15:44:59.876Z,145
2018-09-13T15:46:09.856Z,155
2018-09-13T15:47:19.802Z,170
2018-09-13T15:48:29.760Z,160
2018-09-13T15:49:39.749Z,135
2018-09-13T15:50:49.703Z,115
2018-09-13T15:51:59.905Z,105
2018-09-13T15:53:09.865Z,100
2018-09-13T15:54:19.310Z,100
2018-09-13T15:55:29.274Z,100
2018-09-13T15:56:39.268Z,95
2018-09-13T15:57:49.435Z,90
2018-09-13T15:58:59.394Z,85
2018-09-13T16:00:09.102Z,80
2018-09-13T16:01:18.821Z,80
2018-09-13T16:02:28.791Z,75
2018-09-13T16:03:38.230Z,70
2018-09-13T16:04:48.125Z,70
2018-09-13T16:05:57.833Z,65
2018-09-13T16:07:07.544Z,65
2018-09-13T16:08:17.514Z,65
2018-09-13T16:09:27.218Z,65
2018-09-13T16:10:36.649Z,60
2018-09-13T16:11:46.610Z,60
2018-09-13T18:20:32.972Z,0
2018-09-13T18:21:42.944Z,0
2018-09-13T18:22:52.674Z,0
2018-09-13T18:24:03.013Z,0
2018-09-13T18:25:12.749Z,0
2018-09-13T18:26:22.459Z,0
2018-09-13T18:27:32.163Z,0
2018-09-13T18:28:42.139Z,0
2018-09-13T18:29:52.102Z,0
2018-09-13T18:31:02.080Z,0
2018-09-13T18:32:12.078Z,0
2018-09-13T18:33:22.058Z,0
2018-09-13T18:34:32.038Z,0
2018-09-13T18:35:42.045Z,0